sensor_id;sensor_type;location;lat;lon;timestamp;P1;durP1;ratioP1;P2;durP2;ratioP2
3274;SDS011;1649;53.672;10.064;2023-03-04T00:00:55;8.83;;;2.43;;
3274;SDS011;1649;53.672;10.064;2023-03-04T00:03:21;22.07;;;3.10;;
3274;SDS011;1649;53.672;10.064;2023-03-04T00:05:46;12.30;;;3.60;;
3274;SDS011;1649;53.672;10.064;2023-03-04T00:08:12;9.60;;;2.13;;
3274;SDS011;1649;53.672;10.064;2023-03-04T00:10:37;14.57;;;2.20;;
3274;SDS011;1649;53.672;10.064;2023-03-04T00:13:03;12.70;;;2.20;;
3274;SDS011;1649;53.672;10.064;2023-03-04T00:15:28;11.90;;;2.27;;
3274;SDS011;1649;53.672;10.064;2023-03-04T00:17:54;14.70;;;3.10;;
3274;SDS011;1649;53.672;10.064;2023-03-04T00:20:20;11.33;;;2.33;;
3274;SDS011;1649;53.672;10.064;2023-03-04T00:22:45;8.30;;;1.77;;
3274;SDS011;1649;53.672;10.064;2023-03-04T00:25:11;7.23;;;2.03;;
3274;SDS011;1649;53.672;10.064;2023-03-04T00:27:36;10.03;;;2.27;;
3274;SDS011;1649;53.672;10.064;2023-03-04T00:30:02;6.80;;;2.00;;
3274;SDS011;1649;53.672;10.064;2023-03-04T00:32:29;10.57;;;2.80;;
3274;SDS011;1649;53.672;10.064;2023-03-04T00:34:54;9.70;;;2.73;;
3274;SDS011;1649;53.672;10.064;2023-03-04T00:37:20;6.53;;;1.90;;
3274;SDS011;1649;53.672;10.064;2023-03-04T00:39:45;10.07;;;1.97;;
3274;SDS011;1649;53.672;10.064;2023-03-04T00:42:11;10.07;;;1.77;;
3274;SDS011;1649;53.672;10.064;2023-03-04T00:44:36;9.97;;;2.50;;
3274;SDS011;1649;53.672;10.064;2023-03-04T00:47:02;9.67;;;2.47;;
3274;SDS011;1649;53.672;10.064;2023-03-04T00:49:27;11.97;;;2.50;;
3274;SDS011;1649;53.672;10.064;2023-03-04T00:51:53;8.83;;;2.00;;
3274;SDS011;1649;53.672;10.064;2023-03-04T00:54:18;19.83;;;2.47;;
3274;SDS011;1649;53.672;10.064;2023-03-04T00:56:44;13.10;;;2.37;;
3274;SDS011;1649;53.672;10.064;2023-03-04T00:59:09;6.83;;;2.30;;
3274;SDS011;1649;53.672;10.064;2023-03-04T01:01:35;5.43;;;1.67;;
3274;SDS011;1649;53.672;10.064;2023-03-04T01:04:00;9.87;;;2.90;;
3274;SDS011;1649;53.672;10.064;2023-03-04T01:06:26;10.13;;;2.37;;
3274;SDS011;1649;53.672;10.064;2023-03-04T01:08:51;7.87;;;1.97;;
3274;SDS011;1649;53.672;10.064;2023-03-04T01:11:17;8.23;;;2.30;;
3274;SDS011;1649;53.672;10.064;2023-03-04T01:13:43;8.20;;;2.83;;
3274;SDS011;1649;53.672;10.064;2023-03-04T01:16:08;4.57;;;1.93;;
3274;SDS011;1649;53.672;10.064;2023-03-04T01:18:34;7.43;;;2.03;;
3274;SDS011;1649;53.672;10.064;2023-03-04T01:21:00;14.87;;;3.00;;
3274;SDS011;1649;53.672;10.064;2023-03-04T01:23:26;9.30;;;2.30;;
3274;SDS011;1649;53.672;10.064;2023-03-04T01:25:51;4.83;;;1.97;;
3274;SDS011;1649;53.672;10.064;2023-03-04T01:28:17;8.53;;;2.17;;
3274;SDS011;1649;53.672;10.064;2023-03-04T01:30:42;7.23;;;1.87;;
3274;SDS011;1649;53.672;10.064;2023-03-04T01:33:08;9.67;;;2.53;;
3274;SDS011;1649;53.672;10.064;2023-03-04T01:35:33;7.90;;;2.00;;
3274;SDS011;1649;53.672;10.064;2023-03-04T01:37:59;12.70;;;2.23;;
3274;SDS011;1649;53.672;10.064;2023-03-04T01:40:24;7.97;;;2.43;;
3274;SDS011;1649;53.672;10.064;2023-03-04T01:42:50;9.20;;;2.03;;
3274;SDS011;1649;53.672;10.064;2023-03-04T01:45:17;8.67;;;1.77;;
3274;SDS011;1649;53.672;10.064;2023-03-04T01:47:45;7.57;;;2.00;;
3274;SDS011;1649;53.672;10.064;2023-03-04T01:52:50;4.87;;;1.90;;
3274;SDS011;1649;53.672;10.064;2023-03-04T01:55:16;8.00;;;2.10;;
3274;SDS011;1649;53.672;10.064;2023-03-04T01:57:44;11.40;;;2.60;;
3274;SDS011;1649;53.672;10.064;2023-03-04T02:00:18;5.97;;;1.83;;
3274;SDS011;1649;53.672;10.064;2023-03-04T02:02:53;15.50;;;2.77;;
3274;SDS011;1649;53.672;10.064;2023-03-04T02:05:21;9.30;;;2.63;;
3274;SDS011;1649;53.672;10.064;2023-03-04T02:07:49;7.63;;;2.40;;
3274;SDS011;1649;53.672;10.064;2023-03-04T02:10:15;8.10;;;2.07;;
3274;SDS011;1649;53.672;10.064;2023-03-04T02:12:41;8.90;;;2.27;;
3274;SDS011;1649;53.672;10.064;2023-03-04T02:15:08;9.07;;;2.63;;
3274;SDS011;1649;53.672;10.064;2023-03-04T02:17:34;7.67;;;2.47;;
3274;SDS011;1649;53.672;10.064;2023-03-04T02:22:31;10.47;;;3.20;;
3274;SDS011;1649;53.672;10.064;2023-03-04T02:25:02;7.07;;;2.43;;
3274;SDS011;1649;53.672;10.064;2023-03-04T02:27:34;6.97;;;2.30;;
3274;SDS011;1649;53.672;10.064;2023-03-04T02:30:00;13.17;;;2.80;;
3274;SDS011;1649;53.672;10.064;2023-03-04T02:32:26;8.57;;;2.30;;
3274;SDS011;1649;53.672;10.064;2023-03-04T02:34:51;11.33;;;2.80;;
3274;SDS011;1649;53.672;10.064;2023-03-04T02:37:17;8.93;;;2.63;;
3274;SDS011;1649;53.672;10.064;2023-03-04T02:39:44;15.87;;;3.10;;
3274;SDS011;1649;53.672;10.064;2023-03-04T02:42:11;9.77;;;2.83;;
3274;SDS011;1649;53.672;10.064;2023-03-04T02:44:38;8.90;;;2.90;;
3274;SDS011;1649;53.672;10.064;2023-03-04T02:47:06;12.23;;;3.20;;
3274;SDS011;1649;53.672;10.064;2023-03-04T02:49:33;9.77;;;2.97;;
3274;SDS011;1649;53.672;10.064;2023-03-04T02:52:05;11.93;;;3.40;;
3274;SDS011;1649;53.672;10.064;2023-03-04T02:54:37;9.60;;;2.60;;
3274;SDS011;1649;53.672;10.064;2023-03-04T02:57:04;12.10;;;2.60;;
3274;SDS011;1649;53.672;10.064;2023-03-04T02:59:32;11.83;;;2.60;;
3274;SDS011;1649;53.672;10.064;2023-03-04T03:01:59;11.97;;;2.70;;
3274;SDS011;1649;53.672;10.064;2023-03-04T03:04:24;11.17;;;2.73;;
3274;SDS011;1649;53.672;10.064;2023-03-04T03:06:51;9.23;;;3.40;;
3274;SDS011;1649;53.672;10.064;2023-03-04T03:09:16;6.93;;;2.70;;
3274;SDS011;1649;53.672;10.064;2023-03-04T03:11:42;8.03;;;2.73;;
3274;SDS011;1649;53.672;10.064;2023-03-04T03:14:08;10.20;;;2.47;;
3274;SDS011;1649;53.672;10.064;2023-03-04T03:16:33;8.00;;;2.80;;
3274;SDS011;1649;53.672;10.064;2023-03-04T03:18:59;12.60;;;3.27;;
3274;SDS011;1649;53.672;10.064;2023-03-04T03:21:25;11.07;;;2.90;;
3274;SDS011;1649;53.672;10.064;2023-03-04T03:23:50;7.97;;;2.20;;
3274;SDS011;1649;53.672;10.064;2023-03-04T03:26:16;8.03;;;2.50;;
3274;SDS011;1649;53.672;10.064;2023-03-04T03:28:42;10.00;;;2.60;;
3274;SDS011;1649;53.672;10.064;2023-03-04T03:31:07;10.00;;;2.63;;
3274;SDS011;1649;53.672;10.064;2023-03-04T03:33:33;7.40;;;2.73;;
3274;SDS011;1649;53.672;10.064;2023-03-04T03:35:59;9.13;;;2.60;;
3274;SDS011;1649;53.672;10.064;2023-03-04T03:38:25;7.87;;;2.60;;
3274;SDS011;1649;53.672;10.064;2023-03-04T03:40:50;10.93;;;2.50;;
3274;SDS011;1649;53.672;10.064;2023-03-04T03:43:16;9.20;;;2.30;;
3274;SDS011;1649;53.672;10.064;2023-03-04T03:45:42;10.53;;;2.70;;
3274;SDS011;1649;53.672;10.064;2023-03-04T03:48:07;9.70;;;3.30;;
3274;SDS011;1649;53.672;10.064;2023-03-04T03:50:33;10.30;;;2.80;;
3274;SDS011;1649;53.672;10.064;2023-03-04T03:52:58;8.47;;;2.90;;
3274;SDS011;1649;53.672;10.064;2023-03-04T03:55:24;10.40;;;2.53;;
3274;SDS011;1649;53.672;10.064;2023-03-04T03:57:51;11.80;;;3.27;;
3274;SDS011;1649;53.672;10.064;2023-03-04T04:00:16;9.77;;;2.70;;
3274;SDS011;1649;53.672;10.064;2023-03-04T04:02:42;10.03;;;2.70;;
3274;SDS011;1649;53.672;10.064;2023-03-04T04:05:08;11.17;;;3.10;;
3274;SDS011;1649;53.672;10.064;2023-03-04T04:07:35;10.60;;;2.77;;
3274;SDS011;1649;53.672;10.064;2023-03-04T04:10:01;8.77;;;2.53;;
3274;SDS011;1649;53.672;10.064;2023-03-04T04:12:28;13.67;;;2.80;;
3274;SDS011;1649;53.672;10.064;2023-03-04T04:14:53;7.33;;;2.50;;
3274;SDS011;1649;53.672;10.064;2023-03-04T04:17:19;5.90;;;2.50;;
3274;SDS011;1649;53.672;10.064;2023-03-04T04:19:44;17.13;;;2.93;;
3274;SDS011;1649;53.672;10.064;2023-03-04T04:22:12;7.57;;;3.10;;
3274;SDS011;1649;53.672;10.064;2023-03-04T04:24:40;12.07;;;3.00;;
3274;SDS011;1649;53.672;10.064;2023-03-04T04:27:06;13.60;;;3.37;;
3274;SDS011;1649;53.672;10.064;2023-03-04T04:29:32;9.67;;;2.60;;
3274;SDS011;1649;53.672;10.064;2023-03-04T04:31:57;10.83;;;2.80;;
3274;SDS011;1649;53.672;10.064;2023-03-04T04:34:23;10.53;;;3.20;;
3274;SDS011;1649;53.672;10.064;2023-03-04T04:36:49;9.30;;;2.37;;
3274;SDS011;1649;53.672;10.064;2023-03-04T04:39:14;13.10;;;2.87;;
3274;SDS011;1649;53.672;10.064;2023-03-04T04:41:41;11.93;;;3.10;;
3274;SDS011;1649;53.672;10.064;2023-03-04T04:44:08;10.43;;;2.73;;
3274;SDS011;1649;53.672;10.064;2023-03-04T04:46:34;12.20;;;2.60;;
3274;SDS011;1649;53.672;10.064;2023-03-04T04:49:01;10.93;;;2.47;;
3274;SDS011;1649;53.672;10.064;2023-03-04T04:51:27;13.50;;;2.23;;
3274;SDS011;1649;53.672;10.064;2023-03-04T04:53:53;10.20;;;2.20;;
3274;SDS011;1649;53.672;10.064;2023-03-04T04:56:20;9.20;;;2.73;;
3274;SDS011;1649;53.672;10.064;2023-03-04T04:58:50;7.80;;;2.53;;
3274;SDS011;1649;53.672;10.064;2023-03-04T05:01:16;11.63;;;2.40;;
3274;SDS011;1649;53.672;10.064;2023-03-04T05:03:41;14.10;;;3.10;;
3274;SDS011;1649;53.672;10.064;2023-03-04T05:06:08;12.53;;;2.70;;
3274;SDS011;1649;53.672;10.064;2023-03-04T05:08:35;16.33;;;2.53;;
3274;SDS011;1649;53.672;10.064;2023-03-04T05:11:00;11.00;;;2.50;;
3274;SDS011;1649;53.672;10.064;2023-03-04T05:13:27;10.93;;;2.60;;
3274;SDS011;1649;53.672;10.064;2023-03-04T05:15:53;14.73;;;2.70;;
3274;SDS011;1649;53.672;10.064;2023-03-04T05:18:23;11.73;;;2.83;;
3274;SDS011;1649;53.672;10.064;2023-03-04T05:20:54;13.33;;;2.87;;
3274;SDS011;1649;53.672;10.064;2023-03-04T05:23:21;11.03;;;2.37;;
3274;SDS011;1649;53.672;10.064;2023-03-04T05:25:47;13.13;;;3.03;;
3274;SDS011;1649;53.672;10.064;2023-03-04T05:28:13;13.77;;;2.40;;
3274;SDS011;1649;53.672;10.064;2023-03-04T05:30:39;12.80;;;2.67;;
3274;SDS011;1649;53.672;10.064;2023-03-04T05:33:06;11.17;;;3.40;;
3274;SDS011;1649;53.672;10.064;2023-03-04T05:35:33;19.10;;;3.23;;
3274;SDS011;1649;53.672;10.064;2023-03-04T05:38:02;10.60;;;2.70;;
3274;SDS011;1649;53.672;10.064;2023-03-04T05:40:29;14.17;;;3.30;;
3274;SDS011;1649;53.672;10.064;2023-03-04T05:42:55;11.33;;;2.90;;
3274;SDS011;1649;53.672;10.064;2023-03-04T05:45:21;17.83;;;2.90;;
3274;SDS011;1649;53.672;10.064;2023-03-04T05:47:47;9.77;;;2.77;;
3274;SDS011;1649;53.672;10.064;2023-03-04T05:50:13;15.60;;;3.27;;
3274;SDS011;1649;53.672;10.064;2023-03-04T05:52:38;9.63;;;2.97;;
3274;SDS011;1649;53.672;10.064;2023-03-04T05:55:04;13.00;;;2.93;;
3274;SDS011;1649;53.672;10.064;2023-03-04T05:57:30;19.20;;;3.30;;
3274;SDS011;1649;53.672;10.064;2023-03-04T05:59:55;13.30;;;3.03;;
3274;SDS011;1649;53.672;10.064;2023-03-04T06:02:21;15.43;;;3.10;;
3274;SDS011;1649;53.672;10.064;2023-03-04T06:04:46;14.20;;;3.03;;
3274;SDS011;1649;53.672;10.064;2023-03-04T06:07:12;15.80;;;3.40;;
3274;SDS011;1649;53.672;10.064;2023-03-04T06:09:37;20.23;;;2.80;;
3274;SDS011;1649;53.672;10.064;2023-03-04T06:12:03;14.00;;;2.63;;
3274;SDS011;1649;53.672;10.064;2023-03-04T06:14:28;12.57;;;3.10;;
3274;SDS011;1649;53.672;10.064;2023-03-04T06:16:54;15.67;;;3.17;;
3274;SDS011;1649;53.672;10.064;2023-03-04T06:19:19;15.97;;;2.80;;
3274;SDS011;1649;53.672;10.064;2023-03-04T06:21:45;19.80;;;3.10;;
3274;SDS011;1649;53.672;10.064;2023-03-04T06:24:11;17.40;;;2.93;;
3274;SDS011;1649;53.672;10.064;2023-03-04T06:26:36;17.47;;;3.30;;
3274;SDS011;1649;53.672;10.064;2023-03-04T06:29:03;19.87;;;3.00;;
3274;SDS011;1649;53.672;10.064;2023-03-04T06:31:29;13.37;;;3.20;;
3274;SDS011;1649;53.672;10.064;2023-03-04T06:33:55;15.53;;;3.00;;
3274;SDS011;1649;53.672;10.064;2023-03-04T06:36:20;13.47;;;2.93;;
3274;SDS011;1649;53.672;10.064;2023-03-04T06:38:45;17.43;;;3.80;;
3274;SDS011;1649;53.672;10.064;2023-03-04T06:41:11;16.37;;;2.53;;
3274;SDS011;1649;53.672;10.064;2023-03-04T06:43:37;13.73;;;2.87;;
3274;SDS011;1649;53.672;10.064;2023-03-04T06:46:04;12.70;;;3.17;;
3274;SDS011;1649;53.672;10.064;2023-03-04T06:48:30;13.20;;;3.20;;
3274;SDS011;1649;53.672;10.064;2023-03-04T06:50:56;14.57;;;3.10;;
3274;SDS011;1649;53.672;10.064;2023-03-04T06:53:21;12.80;;;3.20;;
3274;SDS011;1649;53.672;10.064;2023-03-04T06:55:47;21.53;;;3.83;;
3274;SDS011;1649;53.672;10.064;2023-03-04T06:58:13;19.80;;;3.47;;
3274;SDS011;1649;53.672;10.064;2023-03-04T07:00:41;19.37;;;3.63;;
3274;SDS011;1649;53.672;10.064;2023-03-04T07:03:07;15.20;;;3.03;;
3274;SDS011;1649;53.672;10.064;2023-03-04T07:05:35;11.20;;;2.53;;
3274;SDS011;1649;53.672;10.064;2023-03-04T07:08:00;17.97;;;2.77;;
3274;SDS011;1649;53.672;10.064;2023-03-04T07:10:26;12.53;;;2.80;;
3274;SDS011;1649;53.672;10.064;2023-03-04T07:12:51;16.60;;;3.23;;
3274;SDS011;1649;53.672;10.064;2023-03-04T07:15:17;13.27;;;2.90;;
3274;SDS011;1649;53.672;10.064;2023-03-04T07:17:42;14.07;;;2.70;;
3274;SDS011;1649;53.672;10.064;2023-03-04T07:20:08;12.90;;;2.70;;
3274;SDS011;1649;53.672;10.064;2023-03-04T07:22:34;15.23;;;2.60;;
3274;SDS011;1649;53.672;10.064;2023-03-04T07:25:00;11.30;;;3.10;;
3274;SDS011;1649;53.672;10.064;2023-03-04T07:27:25;15.73;;;2.80;;
3274;SDS011;1649;53.672;10.064;2023-03-04T07:29:51;14.17;;;2.80;;
3274;SDS011;1649;53.672;10.064;2023-03-04T07:32:16;11.37;;;2.60;;
3274;SDS011;1649;53.672;10.064;2023-03-04T07:34:42;17.40;;;3.07;;
3274;SDS011;1649;53.672;10.064;2023-03-04T07:37:07;11.73;;;2.87;;
3274;SDS011;1649;53.672;10.064;2023-03-04T07:39:33;16.57;;;3.27;;
3274;SDS011;1649;53.672;10.064;2023-03-04T07:41:58;15.00;;;3.10;;
3274;SDS011;1649;53.672;10.064;2023-03-04T07:44:24;15.20;;;3.53;;
3274;SDS011;1649;53.672;10.064;2023-03-04T07:46:49;19.97;;;3.30;;
3274;SDS011;1649;53.672;10.064;2023-03-04T07:49:14;12.87;;;3.20;;
3274;SDS011;1649;53.672;10.064;2023-03-04T07:51:40;15.27;;;3.03;;
3274;SDS011;1649;53.672;10.064;2023-03-04T07:54:05;18.63;;;3.67;;
3274;SDS011;1649;53.672;10.064;2023-03-04T07:56:32;15.80;;;4.13;;
3274;SDS011;1649;53.672;10.064;2023-03-04T07:58:58;19.23;;;3.40;;
3274;SDS011;1649;53.672;10.064;2023-03-04T08:01:32;23.03;;;3.90;;
3274;SDS011;1649;53.672;10.064;2023-03-04T08:04:00;13.50;;;3.17;;
3274;SDS011;1649;53.672;10.064;2023-03-04T08:06:26;21.47;;;4.27;;
3274;SDS011;1649;53.672;10.064;2023-03-04T08:08:56;17.27;;;3.50;;
3274;SDS011;1649;53.672;10.064;2023-03-04T08:11:27;14.90;;;3.83;;
3274;SDS011;1649;53.672;10.064;2023-03-04T08:13:55;15.63;;;3.37;;
3274;SDS011;1649;53.672;10.064;2023-03-04T08:16:22;17.20;;;4.07;;
3274;SDS011;1649;53.672;10.064;2023-03-04T08:18:49;16.43;;;3.50;;
3274;SDS011;1649;53.672;10.064;2023-03-04T08:21:17;21.37;;;4.17;;
3274;SDS011;1649;53.672;10.064;2023-03-04T08:23:44;19.57;;;3.53;;
3274;SDS011;1649;53.672;10.064;2023-03-04T08:26:11;23.13;;;3.80;;
3274;SDS011;1649;53.672;10.064;2023-03-04T08:28:38;21.67;;;3.27;;
3274;SDS011;1649;53.672;10.064;2023-03-04T08:31:05;17.83;;;3.43;;
3274;SDS011;1649;53.672;10.064;2023-03-04T08:33:31;18.43;;;3.97;;
3274;SDS011;1649;53.672;10.064;2023-03-04T08:35:57;20.23;;;4.40;;
3274;SDS011;1649;53.672;10.064;2023-03-04T08:38:22;19.30;;;4.00;;
3274;SDS011;1649;53.672;10.064;2023-03-04T08:40:52;21.87;;;3.60;;
3274;SDS011;1649;53.672;10.064;2023-03-04T08:43:19;19.13;;;3.90;;
3274;SDS011;1649;53.672;10.064;2023-03-04T08:45:44;15.10;;;3.70;;
3274;SDS011;1649;53.672;10.064;2023-03-04T08:48:10;18.70;;;4.03;;
3274;SDS011;1649;53.672;10.064;2023-03-04T08:50:36;18.20;;;3.27;;
3274;SDS011;1649;53.672;10.064;2023-03-04T08:53:01;17.53;;;3.57;;
3274;SDS011;1649;53.672;10.064;2023-03-04T08:55:27;19.73;;;4.37;;
3274;SDS011;1649;53.672;10.064;2023-03-04T08:57:52;16.73;;;3.83;;
3274;SDS011;1649;53.672;10.064;2023-03-04T09:00:18;11.60;;;3.70;;
3274;SDS011;1649;53.672;10.064;2023-03-04T09:02:45;18.73;;;4.80;;
3274;SDS011;1649;53.672;10.064;2023-03-04T09:05:10;17.77;;;3.57;;
3274;SDS011;1649;53.672;10.064;2023-03-04T09:07:36;19.97;;;4.53;;
3274;SDS011;1649;53.672;10.064;2023-03-04T09:10:02;15.33;;;3.50;;
3274;SDS011;1649;53.672;10.064;2023-03-04T09:12:28;20.10;;;3.60;;
3274;SDS011;1649;53.672;10.064;2023-03-04T09:14:53;10.53;;;3.70;;
3274;SDS011;1649;53.672;10.064;2023-03-04T09:17:19;18.03;;;4.20;;
3274;SDS011;1649;53.672;10.064;2023-03-04T09:19:44;21.10;;;3.50;;
3274;SDS011;1649;53.672;10.064;2023-03-04T09:22:10;19.50;;;3.30;;
3274;SDS011;1649;53.672;10.064;2023-03-04T09:24:35;20.43;;;4.37;;
3274;SDS011;1649;53.672;10.064;2023-03-04T09:27:01;23.30;;;4.23;;
3274;SDS011;1649;53.672;10.064;2023-03-04T09:29:26;17.90;;;4.27;;
3274;SDS011;1649;53.672;10.064;2023-03-04T09:31:52;15.57;;;3.07;;
3274;SDS011;1649;53.672;10.064;2023-03-04T09:34:17;13.60;;;3.57;;
3274;SDS011;1649;53.672;10.064;2023-03-04T09:36:43;14.53;;;4.10;;
3274;SDS011;1649;53.672;10.064;2023-03-04T09:39:08;20.60;;;3.97;;
3274;SDS011;1649;53.672;10.064;2023-03-04T09:41:39;17.87;;;4.50;;
3274;SDS011;1649;53.672;10.064;2023-03-04T09:46:47;12.23;;;3.63;;
3274;SDS011;1649;53.672;10.064;2023-03-04T09:49:14;16.00;;;4.43;;
3274;SDS011;1649;53.672;10.064;2023-03-04T09:54:36;26.93;;;5.10;;
3274;SDS011;1649;53.672;10.064;2023-03-04T09:57:27;18.13;;;4.63;;
3274;SDS011;1649;53.672;10.064;2023-03-04T10:00:23;18.60;;;3.40;;
3274;SDS011;1649;53.672;10.064;2023-03-04T10:05:58;11.90;;;3.90;;
3274;SDS011;1649;53.672;10.064;2023-03-04T10:11:14;16.40;;;3.70;;
3274;SDS011;1649;53.672;10.064;2023-03-04T10:13:56;18.33;;;4.00;;
3274;SDS011;1649;53.672;10.064;2023-03-04T10:16:32;10.33;;;3.47;;
3274;SDS011;1649;53.672;10.064;2023-03-04T10:22:19;21.80;;;4.30;;
3274;SDS011;1649;53.672;10.064;2023-03-04T10:24:47;14.37;;;4.20;;
3274;SDS011;1649;53.672;10.064;2023-03-04T10:27:14;25.60;;;3.80;;
3274;SDS011;1649;53.672;10.064;2023-03-04T10:29:43;16.30;;;3.57;;
3274;SDS011;1649;53.672;10.064;2023-03-04T10:32:15;22.37;;;4.17;;
3274;SDS011;1649;53.672;10.064;2023-03-04T10:34:43;14.70;;;3.70;;
3274;SDS011;1649;53.672;10.064;2023-03-04T10:37:09;20.20;;;4.37;;
3274;SDS011;1649;53.672;10.064;2023-03-04T10:42:05;16.60;;;3.10;;
3274;SDS011;1649;53.672;10.064;2023-03-04T10:44:51;24.50;;;4.70;;
3274;SDS011;1649;53.672;10.064;2023-03-04T10:47:21;16.10;;;4.27;;
3274;SDS011;1649;53.672;10.064;2023-03-04T10:49:53;19.77;;;4.27;;
3274;SDS011;1649;53.672;10.064;2023-03-04T10:54:51;19.67;;;4.40;;
3274;SDS011;1649;53.672;10.064;2023-03-04T10:57:23;20.47;;;4.27;;
3274;SDS011;1649;53.672;10.064;2023-03-04T10:59:59;17.00;;;3.40;;
3274;SDS011;1649;53.672;10.064;2023-03-04T11:02:27;18.87;;;4.50;;
3274;SDS011;1649;53.672;10.064;2023-03-04T11:07:48;19.90;;;3.20;;
3274;SDS011;1649;53.672;10.064;2023-03-04T11:10:20;13.23;;;4.10;;
3274;SDS011;1649;53.672;10.064;2023-03-04T11:15:26;17.03;;;4.00;;
3274;SDS011;1649;53.672;10.064;2023-03-04T11:17:54;11.10;;;3.07;;
3274;SDS011;1649;53.672;10.064;2023-03-04T11:20:37;18.77;;;3.83;;
3274;SDS011;1649;53.672;10.064;2023-03-04T11:23:09;15.70;;;3.67;;
3274;SDS011;1649;53.672;10.064;2023-03-04T11:25:41;15.77;;;3.80;;
3274;SDS011;1649;53.672;10.064;2023-03-04T11:28:17;18.00;;;3.03;;
3274;SDS011;1649;53.672;10.064;2023-03-04T11:30:57;15.60;;;3.50;;
3274;SDS011;1649;53.672;10.064;2023-03-04T11:33:41;18.53;;;3.40;;
3274;SDS011;1649;53.672;10.064;2023-03-04T11:36:24;20.77;;;4.20;;
3274;SDS011;1649;53.672;10.064;2023-03-04T11:42:00;12.83;;;2.77;;
3274;SDS011;1649;53.672;10.064;2023-03-04T11:44:35;15.20;;;3.60;;
3274;SDS011;1649;53.672;10.064;2023-03-04T11:47:13;21.50;;;3.33;;
3274;SDS011;1649;53.672;10.064;2023-03-04T11:49:54;16.20;;;4.10;;
3274;SDS011;1649;53.672;10.064;2023-03-04T11:55:28;18.33;;;3.67;;
3274;SDS011;1649;53.672;10.064;2023-03-04T12:01:32;12.83;;;3.13;;
3274;SDS011;1649;53.672;10.064;2023-03-04T12:07:07;15.00;;;3.30;;
3274;SDS011;1649;53.672;10.064;2023-03-04T12:09:54;12.83;;;3.10;;
3274;SDS011;1649;53.672;10.064;2023-03-04T12:12:41;15.00;;;3.20;;
3274;SDS011;1649;53.672;10.064;2023-03-04T12:15:22;16.33;;;3.20;;
3274;SDS011;1649;53.672;10.064;2023-03-04T12:27:16;15.27;;;3.63;;
3274;SDS011;1649;53.672;10.064;2023-03-04T12:30:08;15.00;;;3.40;;
3274;SDS011;1649;53.672;10.064;2023-03-04T12:32:46;12.40;;;2.83;;
3274;SDS011;1649;53.672;10.064;2023-03-04T12:35:54;12.63;;;2.53;;
3274;SDS011;1649;53.672;10.064;2023-03-04T12:38:15;15.70;;;2.60;;
3274;SDS011;1649;53.672;10.064;2023-03-04T12:41:08;13.70;;;2.70;;
3274;SDS011;1649;53.672;10.064;2023-03-04T12:46:26;12.37;;;2.60;;
3274;SDS011;1649;53.672;10.064;2023-03-04T12:52:14;18.80;;;2.53;;
3274;SDS011;1649;53.672;10.064;2023-03-04T12:54:51;12.30;;;2.80;;
3274;SDS011;1649;53.672;10.064;2023-03-04T12:57:25;20.43;;;3.07;;
3274;SDS011;1649;53.672;10.064;2023-03-04T13:02:35;12.27;;;3.40;;
3274;SDS011;1649;53.672;10.064;2023-03-04T13:08:45;12.93;;;3.90;;
3274;SDS011;1649;53.672;10.064;2023-03-04T13:14:05;17.30;;;4.30;;
3274;SDS011;1649;53.672;10.064;2023-03-04T13:16:31;11.13;;;4.83;;
3274;SDS011;1649;53.672;10.064;2023-03-04T13:24:52;10.70;;;3.40;;
3274;SDS011;1649;53.672;10.064;2023-03-04T13:43:39;14.90;;;3.50;;
3274;SDS011;1649;53.672;10.064;2023-03-04T13:53:53;21.00;;;3.80;;
3274;SDS011;1649;53.672;10.064;2023-03-04T13:56:35;12.90;;;4.00;;
3274;SDS011;1649;53.672;10.064;2023-03-04T14:01:34;14.50;;;3.30;;
3274;SDS011;1649;53.672;10.064;2023-03-04T14:04:15;14.07;;;2.90;;
3274;SDS011;1649;53.672;10.064;2023-03-04T14:06:47;11.90;;;3.00;;
3274;SDS011;1649;53.672;10.064;2023-03-04T14:09:23;13.33;;;4.70;;
3274;SDS011;1649;53.672;10.064;2023-03-04T14:11:51;14.70;;;3.13;;
3274;SDS011;1649;53.672;10.064;2023-03-04T14:14:22;14.50;;;3.40;;
3274;SDS011;1649;53.672;10.064;2023-03-04T14:21:51;11.77;;;2.73;;
3274;SDS011;1649;53.672;10.064;2023-03-04T14:24:17;15.43;;;3.23;;
3274;SDS011;1649;53.672;10.064;2023-03-04T14:26:44;17.37;;;3.53;;
3274;SDS011;1649;53.672;10.064;2023-03-04T14:29:19;12.33;;;3.13;;
3274;SDS011;1649;53.672;10.064;2023-03-04T14:31:52;13.17;;;3.10;;
3274;SDS011;1649;53.672;10.064;2023-03-04T14:34:22;14.50;;;3.53;;
3274;SDS011;1649;53.672;10.064;2023-03-04T14:37:00;8.93;;;2.40;;
3274;SDS011;1649;53.672;10.064;2023-03-04T14:39:28;10.90;;;3.27;;
3274;SDS011;1649;53.672;10.064;2023-03-04T14:41:57;11.67;;;3.17;;
3274;SDS011;1649;53.672;10.064;2023-03-04T14:44:41;12.23;;;3.07;;
3274;SDS011;1649;53.672;10.064;2023-03-04T14:47:32;13.97;;;3.67;;
3274;SDS011;1649;53.672;10.064;2023-03-04T14:50:04;13.43;;;2.73;;
3274;SDS011;1649;53.672;10.064;2023-03-04T14:52:37;14.83;;;4.03;;
3274;SDS011;1649;53.672;10.064;2023-03-04T14:57:49;10.63;;;4.13;;
3274;SDS011;1649;53.672;10.064;2023-03-04T15:00:30;15.00;;;3.87;;
3274;SDS011;1649;53.672;10.064;2023-03-04T15:03:01;11.20;;;3.30;;
3274;SDS011;1649;53.672;10.064;2023-03-04T15:05:29;16.83;;;3.73;;
3274;SDS011;1649;53.672;10.064;2023-03-04T15:07:58;10.90;;;3.57;;
3274;SDS011;1649;53.672;10.064;2023-03-04T15:10:42;12.97;;;3.73;;
3274;SDS011;1649;53.672;10.064;2023-03-04T15:13:17;13.33;;;3.20;;
3274;SDS011;1649;53.672;10.064;2023-03-04T15:16:05;13.67;;;3.67;;
3274;SDS011;1649;53.672;10.064;2023-03-04T15:18:31;19.10;;;3.50;;
3274;SDS011;1649;53.672;10.064;2023-03-04T15:23:28;10.73;;;2.80;;
3274;SDS011;1649;53.672;10.064;2023-03-04T15:25:58;17.43;;;4.13;;
3274;SDS011;1649;53.672;10.064;2023-03-04T15:28:35;22.27;;;3.20;;
3274;SDS011;1649;53.672;10.064;2023-03-04T15:31:02;11.37;;;3.17;;
3274;SDS011;1649;53.672;10.064;2023-03-04T15:33:29;13.00;;;3.40;;
3274;SDS011;1649;53.672;10.064;2023-03-04T15:35:56;14.77;;;2.50;;
3274;SDS011;1649;53.672;10.064;2023-03-04T15:38:24;16.50;;;3.27;;
3274;SDS011;1649;53.672;10.064;2023-03-04T15:40:51;13.83;;;3.00;;
3274;SDS011;1649;53.672;10.064;2023-03-04T15:43:19;13.57;;;3.53;;
3274;SDS011;1649;53.672;10.064;2023-03-04T15:45:46;12.13;;;4.00;;
3274;SDS011;1649;53.672;10.064;2023-03-04T15:48:14;10.83;;;2.70;;
3274;SDS011;1649;53.672;10.064;2023-03-04T15:50:46;15.20;;;3.70;;
3274;SDS011;1649;53.672;10.064;2023-03-04T15:53:16;15.20;;;3.40;;
3274;SDS011;1649;53.672;10.064;2023-03-04T15:55:49;15.27;;;3.20;;
3274;SDS011;1649;53.672;10.064;2023-03-04T15:58:14;12.00;;;3.60;;
3274;SDS011;1649;53.672;10.064;2023-03-04T16:00:40;10.87;;;2.83;;
3274;SDS011;1649;53.672;10.064;2023-03-04T16:03:09;11.23;;;2.63;;
3274;SDS011;1649;53.672;10.064;2023-03-04T16:05:38;9.63;;;3.10;;
3274;SDS011;1649;53.672;10.064;2023-03-04T16:08:04;12.43;;;3.30;;
3274;SDS011;1649;53.672;10.064;2023-03-04T16:10:30;14.93;;;3.47;;
3274;SDS011;1649;53.672;10.064;2023-03-04T16:12:57;14.33;;;4.20;;
3274;SDS011;1649;53.672;10.064;2023-03-04T16:15:27;12.17;;;3.13;;
3274;SDS011;1649;53.672;10.064;2023-03-04T16:17:54;9.80;;;2.87;;
3274;SDS011;1649;53.672;10.064;2023-03-04T16:20:21;14.83;;;3.70;;
3274;SDS011;1649;53.672;10.064;2023-03-04T16:22:50;11.90;;;3.40;;
3274;SDS011;1649;53.672;10.064;2023-03-04T16:25:19;18.00;;;3.70;;
3274;SDS011;1649;53.672;10.064;2023-03-04T16:27:45;11.47;;;3.20;;
3274;SDS011;1649;53.672;10.064;2023-03-04T16:30:12;20.13;;;3.70;;
3274;SDS011;1649;53.672;10.064;2023-03-04T16:32:42;13.97;;;3.40;;
3274;SDS011;1649;53.672;10.064;2023-03-04T16:35:08;13.83;;;3.77;;
3274;SDS011;1649;53.672;10.064;2023-03-04T16:37:34;16.27;;;3.47;;
3274;SDS011;1649;53.672;10.064;2023-03-04T16:40:00;8.17;;;3.40;;
3274;SDS011;1649;53.672;10.064;2023-03-04T16:42:26;11.57;;;2.90;;
3274;SDS011;1649;53.672;10.064;2023-03-04T16:44:52;11.27;;;3.47;;
3274;SDS011;1649;53.672;10.064;2023-03-04T16:47:19;10.07;;;3.13;;